Time;durP1;ratioP1;P1;durP2;ratioP2;P2;SDS_P1;SDS_P2;PMS_P1;PMS_P2;Temp;Humidity;BMP_temperature;BMP_pressure;BME280_temperature;BME280_humidity;BME280_pressure;Samples;Min_cycle;Max_cycle;Signal;HPM_P1;HPM_P2
2022/12/22 03:28:04;;;;;;;58.20;24.98;;;;;;;5.21;59.46;99835.47;4405248;32;20189;-93
2022/12/22 03:30:29;;;;;;;59.92;23.50;;;;;;;5.36;59.48;99837.03;4401386;32;20174;-92
2022/12/22 03:32:55;;;;;;;55.30;24.25;;;;;;;5.28;59.47;99837.12;4388468;32;20101;-94
2022/12/22 03:35:20;;;;;;;58.55;26.05;;;;;;;5.23;59.47;99836.31;4388096;32;20162;-94
2022/12/22 03:37:46;;;;;;;59.17;23.83;;;;;;;5.41;59.48;99819.78;4388428;32;20169;-94
2022/12/22 03:40:11;;;;;;;54.17;24.40;;;;;;;5.21;59.47;99817.41;4388494;32;20165;-94
2022/12/22 03:48:07;;;;;;;71.97;27.08;;;;;;;5.43;59.48;99813.72;4405045;32;20523;-93
2022/12/22 03:50:33;;;;;;;57.70;24.25;;;;;;;5.22;59.46;99812.22;4401332;32;20117;-95
2022/12/22 03:52:59;;;;;;;58.22;24.30;;;;;;;5.37;59.48;99813.78;4401310;32;20081;-94
2022/12/22 03:55:24;;;;;;;58.85;25.48;;;;;;;5.30;59.47;99812.16;4400839;32;20123;-91
2022/12/22 03:57:50;;;;;;;62.00;27.00;;;;;;;5.27;59.47;99821.66;4388264;32;20431;-92
2022/12/22 04:00:16;;;;;;;62.13;24.30;;;;;;;5.18;59.47;99831.16;4401446;32;20149;-90
2022/12/22 04:02:41;;;;;;;60.60;25.48;;;;;;;5.16;59.47;99822.59;4423340;32;20066;-93
2022/12/22 04:05:07;;;;;;;59.58;25.05;;;;;;;5.30;59.47;99830.22;4429212;32;20113;-92
2022/12/22 04:07:34;;;;;;;62.05;25.45;;;;;;;5.21;59.47;99838.91;4429803;32;20078;-92
2022/12/22 04:12:56;;;;;;;58.30;25.62;;;;;;;5.18;59.47;99850.97;4420680;32;20130;-92
2022/12/22 04:15:22;;;;;;;59.13;26.17;;;;;;;5.29;59.47;99853.47;4417322;32;20151;-93
2022/12/22 04:17:47;;;;;;;57.72;24.42;;;;;;;5.38;59.48;99850.78;4415932;32;20102;-93
2022/12/22 04:20:12;;;;;;;57.55;25.80;;;;;;;5.26;59.47;99853.50;4415577;32;20147;-94
2022/12/22 04:22:38;;;;;;;60.35;26.35;;;;;;;5.36;59.48;99857.69;4416030;32;20097;-95
2022/12/22 04:25:04;;;;;;;59.42;26.52;;;;;;;5.32;59.48;99859.44;4415871;32;20133;-94
2022/12/22 04:27:29;;;;;;;58.28;25.50;;;;;;;5.19;59.47;99850.09;4415702;32;20136;-91
2022/12/22 04:29:54;;;;;;;62.95;25.75;;;;;;;5.40;59.48;99849.03;4402816;32;20414;-95
2022/12/22 04:32:20;;;;;;;60.60;26.73;;;;;;;5.31;59.47;99849.13;4415355;32;20144;-95
2022/12/22 04:34:45;;;;;;;59.00;25.20;;;;;;;5.37;59.47;99843.91;4415693;32;20173;-94
2022/12/22 04:37:11;;;;;;;67.40;26.77;;;;;;;5.24;59.48;99836.28;4415540;32;20152;-94
2022/12/22 04:39:36;;;;;;;59.97;24.60;;;;;;;5.02;59.46;99833.91;4416037;32;20124;-92
2022/12/22 04:42:01;;;;;;;82.32;35.70;;;;;;;5.33;59.48;99826.75;4415678;32;20168;-91
2022/12/22 04:44:27;;;;;;;87.28;36.20;;;;;;;5.33;59.48;99822.44;4415339;32;20467;-90
2022/12/22 04:46:52;;;;;;;120.57;45.08;;;;;;;5.45;59.48;99824.91;4403395;32;20133;-90
2022/12/22 04:49:18;;;;;;;200.73;69.30;;;;;;;5.51;59.48;99829.16;4415074;32;20133;-90
2022/12/22 04:51:43;;;;;;;95.60;37.10;;;;;;;5.56;59.49;99817.03;4415237;32;20149;-90
2022/12/22 04:54:09;;;;;;;68.18;28.85;;;;;;;5.57;59.49;99825.66;4415366;32;20118;-91
2022/12/22 04:56:35;;;;;;;79.53;32.78;;;;;;;5.28;59.47;99823.34;4415244;32;20111;-91
2022/12/22 04:59:00;;;;;;;126.38;46.65;;;;;;;5.29;59.47;99819.91;4416911;32;20144;-91
2022/12/22 05:01:26;;;;;;;140.57;52.35;;;;;;;5.22;59.47;99822.56;4402419;32;20444;-90
2022/12/22 05:03:51;;;;;;;114.07;46.17;;;;;;;5.02;59.46;99819.28;4415627;32;20426;-88
2022/12/22 05:06:16;;;;;;;134.25;51.58;;;;;;;5.12;59.46;99818.31;4402937;32;20133;-89
2022/12/22 05:08:42;;;;;;;117.25;45.67;;;;;;;5.21;59.47;99817.41;4415383;32;20497;-90
2022/12/22 05:11:07;;;;;;;106.47;40.92;;;;;;;4.99;59.45;99818.47;4415311;32;20174;-89
2022/12/22 05:13:33;;;;;;;119.47;42.13;;;;;;;4.90;59.45;99824.53;4415231;32;20460;-90
2022/12/22 05:16:07;;;;;;;104.90;39.03;;;;;;;4.99;59.46;99821.03;4402409;32;20109;-88
2022/12/22 05:18:33;;;;;;;69.45;30.25;;;;;;;4.96;59.46;99823.63;4405051;32;20070;-91
2022/12/22 05:21:01;;;;;;;70.25;29.10;;;;;;;5.08;59.45;99824.38;4402893;32;20076;-90
2022/12/22 05:23:27;;;;;;;72.72;29.98;;;;;;;5.02;59.46;99828.75;4403308;32;20093;-90
2022/12/22 05:25:52;;;;;;;74.90;29.60;;;;;;;4.97;59.46;99818.47;4415354;32;20172;-90
2022/12/22 05:28:17;;;;;;;78.62;30.58;;;;;;;5.02;59.46;99829.59;4415466;32;20214;-91
2022/12/22 05:30:43;;;;;;;73.97;30.23;;;;;;;5.11;59.47;99824.34;4415130;32;20385;-91
2022/12/22 05:33:08;;;;;;;71.85;29.25;;;;;;;5.03;59.46;99826.16;4415125;32;20129;-91
2022/12/22 05:35:34;;;;;;;67.60;29.40;;;;;;;5.10;59.47;99830.38;4415169;32;20143;-91
2022/12/22 05:37:59;;;;;;;66.15;28.12;;;;;;;5.07;59.46;99826.97;4415399;32;20108;-91
2022/12/22 05:40:25;;;;;;;66.68;28.25;;;;;;;5.17;59.47;99823.44;4402574;32;20153;-92
2022/12/22 05:42:50;;;;;;;73.45;29.90;;;;;;;5.08;59.46;99824.38;4402783;32;20144;-91
2022/12/22 05:45:17;;;;;;;70.07;30.90;;;;;;;5.19;59.47;99821.69;4415504;32;20135;-91
2022/12/22 05:47:44;;;;;;;76.40;29.90;;;;;;;5.10;59.46;99822.66;4402158;32;20140;-89
2022/12/22 05:50:10;;;;;;;67.78;27.98;;;;;;;5.32;59.48;99812.13;4414757;32;20131;-88
2022/12/22 05:52:35;;;;;;;60.65;26.40;;;;;;;5.26;59.47;99819.94;4402411;32;20126;-89
2022/12/22 05:55:01;;;;;;;63.75;26.12;;;;;;;5.28;59.47;99811.31;4417038;32;20137;-89
2022/12/22 05:57:26;;;;;;;67.47;27.00;;;;;;;5.21;59.47;99812.25;4414874;32;20105;-88
2022/12/22 05:59:52;;;;;;;66.32;24.87;;;;;;;5.00;59.46;99818.44;4402228;32;20139;-89
2022/12/22 06:02:17;;;;;;;58.17;26.62;;;;;;;5.15;59.46;99818.28;4427717;32;20098;-88
2022/12/22 06:04:42;;;;;;;53.65;24.70;;;;;;;5.20;59.47;99813.09;4414813;32;20101;-89
2022/12/22 06:07:08;;;;;;;59.95;25.45;;;;;;;5.34;59.47;99812.97;4415208;32;20417;-89
2022/12/22 06:09:33;;;;;;;58.33;24.85;;;;;;;5.17;59.47;99818.28;4427508;32;20369;-92
2022/12/22 06:11:59;;;;;;;58.45;25.50;;;;;;;5.02;59.46;99818.44;4414711;32;20163;-90
2022/12/22 06:14:24;;;;;;;62.72;26.60;;;;;;;5.26;59.47;99814.78;4416138;32;20139;-89
2022/12/22 06:16:50;;;;;;;65.28;26.27;;;;;;;5.10;59.46;99812.34;4414928;32;20134;-89
2022/12/22 06:19:15;;;;;;;70.35;27.83;;;;;;;5.06;59.46;99809.78;4414636;32;20124;-89
2022/12/22 06:21:40;;;;;;;61.58;26.62;;;;;;;4.84;59.45;99814.28;4414696;32;20147;-89
2022/12/22 06:24:06;;;;;;;62.55;25.85;;;;;;;4.98;59.46;99815.03;4414482;32;20153;-89
2022/12/22 06:26:32;;;;;;;58.38;26.10;;;;;;;5.05;59.46;99814.09;4414736;32;20113;-89
2022/12/22 06:28:57;;;;;;;68.22;27.80;;;;;;;5.09;59.46;99813.19;4414811;32;20343;-89
2022/12/22 06:31:23;;;;;;;60.00;26.23;;;;;;;5.14;59.46;99821.75;4401940;32;20168;-89
2022/12/22 06:33:48;;;;;;;69.25;27.80;;;;;;;5.17;59.47;99819.13;4414546;32;20109;-89
2022/12/22 06:36:14;;;;;;;70.15;27.02;;;;;;;5.11;59.46;99833.81;4415879;32;20121;-89
2022/12/22 06:38:39;;;;;;;63.67;28.25;;;;;;;5.29;59.47;99832.81;4414560;32;20092;-89
2022/12/22 06:41:04;;;;;;;67.05;28.23;;;;;;;5.07;59.46;99833.00;4414593;32;20145;-89
2022/12/22 06:43:30;;;;;;;61.70;27.23;;;;;;;4.76;59.44;99824.66;4414637;32;20395;-89
2022/12/22 06:45:57;;;;;;;62.13;26.73;;;;;;;5.16;59.47;99830.31;4414647;32;20148;-91
2022/12/22 06:48:23;;;;;;;62.13;27.80;;;;;;;5.07;59.46;99840.75;4402084;32;20908;-89
2022/12/22 06:50:48;;;;;;;62.20;26.73;;;;;;;5.16;59.47;99832.91;4414203;32;20105;-90
2022/12/22 06:53:14;;;;;;;61.55;27.13;;;;;;;5.30;59.47;99834.53;4414697;32;20137;-90
2022/12/22 06:55:39;;;;;;;66.62;26.58;;;;;;;5.31;59.48;99834.50;4414166;32;20161;-90
2022/12/22 06:58:05;;;;;;;69.78;28.12;;;;;;;5.15;59.46;99840.66;4414138;32;20085;-90
2022/12/22 07:00:30;;;;;;;64.22;26.52;;;;;;;5.01;59.45;99837.38;4415717;32;20161;-89
2022/12/22 07:02:56;;;;;;;64.07;26.23;;;;;;;4.78;59.44;99840.13;4403768;32;20118;-90
2022/12/22 07:05:22;;;;;;;66.50;27.87;;;;;;;4.70;59.43;99847.87;4416264;32;20180;-90
2022/12/22 07:07:48;;;;;;;63.67;26.40;;;;;;;4.86;59.44;99849.50;4403402;32;20131;-93
2022/12/22 07:10:14;;;;;;;60.70;26.05;;;;;;;4.83;59.44;99853.81;4416293;32;20105;-95
2022/12/22 07:12:39;;;;;;;61.60;26.48;;;;;;;4.91;59.45;99847.72;4417907;32;20113;-94
2022/12/22 07:15:05;;;;;;;64.95;28.50;;;;;;;5.07;59.46;99842.47;4416491;32;20150;-96
2022/12/22 07:17:30;;;;;;;66.70;27.52;;;;;;;5.09;59.46;99836.41;4416440;32;20096;-96
2022/12/22 07:19:56;;;;;;;70.18;27.92;;;;;;;4.89;59.45;99840.87;4416528;32;20141;-96
2022/12/22 07:22:21;;;;;;;69.70;28.50;;;;;;;4.90;59.45;99840.00;4416277;32;20192;-96
2022/12/22 07:24:47;;;;;;;62.03;28.02;;;;;;;5.07;59.46;99838.16;4416027;32;20189;-96
2022/12/22 07:27:12;;;;;;;67.65;28.90;;;;;;;5.06;59.46;99835.59;4416341;32;20453;-96
2022/12/22 07:29:39;;;;;;;63.28;28.80;;;;;;;5.13;59.47;99829.50;4416177;32;20121;-96
2022/12/22 07:32:05;;;;;;;70.12;29.67;;;;;;;5.16;59.47;99845.81;4418325;32;20117;-95
2022/12/22 07:34:30;;;;;;;62.92;27.40;;;;;;;5.14;59.47;99833.78;4415987;32;20117;-93
2022/12/22 07:36:55;;;;;;;65.47;28.15;;;;;;;5.15;59.46;99841.53;4416024;32;20172;-93
2022/12/22 07:39:21;;;;;;;75.57;32.15;;;;;;;5.30;59.47;99845.69;4416350;32;20140;-93
2022/12/22 07:44:30;;;;;;;64.87;29.52;;;;;;;5.51;59.48;99845.50;4419968;32;20146;-92
2022/12/22 07:46:56;;;;;;;72.12;30.45;;;;;;;5.57;59.49;99852.31;4403211;32;20093;-93
2022/12/22 07:52:05;;;;;;;71.90;28.92;;;;;;;5.53;59.49;99864.41;4421059;32;20176;-90
2022/12/22 07:54:32;;;;;;;64.30;28.08;;;;;;;5.51;59.49;99853.25;4417609;32;20178;-92
2022/12/22 07:56:58;;;;;;;68.10;26.45;;;;;;;5.54;59.49;99848.03;4416126;32;20120;-93
2022/12/22 07:59:23;;;;;;;60.15;27.08;;;;;;;5.51;59.49;99850.66;4415835;32;20109;-90
2022/12/22 08:01:48;;;;;;;62.30;27.55;;;;;;;5.58;59.49;99853.19;4415169;32;20367;-93
2022/12/22 08:04:14;;;;;;;63.35;27.42;;;;;;;5.92;59.51;99857.16;4415555;32;20144;-93
2022/12/22 08:06:39;;;;;;;60.63;27.60;;;;;;;6.09;59.52;99844.00;4415925;32;20771;-92
2022/12/22 08:09:06;;;;;;;58.42;27.45;;;;;;;6.00;59.51;99845.00;4415900;32;20136;-93
2022/12/22 08:11:31;;;;;;;66.70;27.25;;;;;;;6.05;59.51;99850.09;4403179;32;20186;-92
2022/12/22 08:13:56;;;;;;;62.90;25.77;;;;;;;6.18;59.52;99846.50;4416065;32;20129;-93
2022/12/22 08:16:22;;;;;;;60.45;26.67;;;;;;;6.17;59.52;99847.38;4416015;32;20105;-93
2022/12/22 08:18:48;;;;;;;61.28;26.42;;;;;;;6.19;59.52;99855.97;4422303;32;20105;-93
2022/12/22 08:21:14;;;;;;;60.20;25.73;;;;;;;6.27;59.54;99856.72;4414485;32;20078;-91
2022/12/22 08:23:39;;;;;;;63.72;27.95;;;;;;;6.31;59.53;99844.59;4415845;32;20073;-92
2022/12/22 08:26:35;;;;;;;66.07;28.77;;;;;;;6.42;59.54;99841.00;4428396;32;20066;-93
2022/12/22 08:29:13;;;;;;;65.15;29.25;;;;;;;6.54;59.54;99826.19;4400528;32;20106;-92
2022/12/22 08:31:38;;;;;;;67.07;28.23;;;;;;;6.60;59.55;99828.69;4403298;32;21093;-93
2022/12/22 08:34:05;;;;;;;65.22;30.80;;;;;;;6.74;59.56;99834.50;4402832;32;20109;-93
2022/12/22 08:36:32;;;;;;;63.47;29.23;;;;;;;6.82;59.56;99832.66;4403079;32;20068;-92
2022/12/22 08:38:58;;;;;;;77.53;30.58;;;;;;;6.75;59.55;99836.22;4415898;32;20666;-93
2022/12/22 08:44:07;;;;;;;82.78;38.53;;;;;;;6.82;59.56;99827.47;4419857;32;20124;-93
2022/12/22 08:46:33;;;;;;;77.72;35.53;;;;;;;6.74;59.56;99837.09;4415267;32;20101;-94
2022/12/22 08:48:58;;;;;;;69.75;30.37;;;;;;;6.65;59.54;99863.13;4417226;32;20114;-92
2022/12/22 08:51:24;;;;;;;74.87;32.58;;;;;;;6.72;59.56;99863.00;4415466;32;20118;-93
2022/12/22 08:53:49;;;;;;;64.57;31.08;;;;;;;6.85;59.56;99852.44;4415697;32;20129;-92
2022/12/22 08:56:15;;;;;;;74.70;30.90;;;;;;;6.87;59.56;99853.31;4415401;32;20244;-92
2022/12/22 08:58:40;;;;;;;69.15;30.77;;;;;;;6.77;59.55;99849.97;4415165;32;20077;-92
2022/12/22 09:01:05;;;;;;;66.28;29.70;;;;;;;6.74;59.56;99842.28;4415203;32;20165;-92
2022/12/22 09:03:31;;;;;;;64.05;28.85;;;;;;;6.77;59.55;99834.47;4415367;32;20164;-89
2022/12/22 09:06:00;;;;;;;70.55;28.80;;;;;;;6.84;59.56;99830.88;4417581;32;20135;-92
2022/12/22 09:08:26;;;;;;;75.95;30.27;;;;;;;6.91;59.56;99827.34;4402790;32;20077;-92
2022/12/22 09:10:51;;;;;;;68.10;28.58;;;;;;;6.94;59.57;99819.53;4417234;32;20208;-91
2022/12/22 09:13:16;;;;;;;70.47;30.98;;;;;;;6.84;59.56;99817.94;4415494;32;20148;-93
2022/12/22 09:15:42;;;;;;;63.47;27.83;;;;;;;7.00;59.56;99827.19;4415105;32;20101;-91
2022/12/22 09:18:07;;;;;;;67.50;28.10;;;;;;;7.03;59.57;99811.59;4415232;32;20101;-92
2022/12/22 09:20:33;;;;;;;61.33;28.52;;;;;;;7.01;59.56;99807.34;4415023;32;20133;-92
2022/12/22 09:22:59;;;;;;;65.18;28.52;;;;;;;7.04;59.58;99802.97;4414191;32;20145;-93
2022/12/22 09:25:24;;;;;;;63.85;28.25;;;;;;;7.22;59.58;99816.47;4415409;32;20086;-94
2022/12/22 09:27:49;;;;;;;67.22;27.30;;;;;;;7.23;59.58;99805.25;4415335;32;20108;-93
2022/12/22 09:30:15;;;;;;;67.75;29.20;;;;;;;7.29;59.58;99787.84;4414799;32;20125;-93
2022/12/22 09:32:40;;;;;;;64.85;28.95;;;;;;;7.22;59.57;99794.03;4414822;32;20123;-94
2022/12/22 09:35:06;;;;;;;74.00;31.08;;;;;;;7.14;59.57;99788.16;4415064;32;20140;-93
2022/12/22 09:37:31;;;;;;;66.25;30.92;;;;;;;7.25;59.59;99793.97;4414909;32;20085;-93
2022/12/22 09:39:57;;;;;;;67.22;30.48;;;;;;;7.34;59.59;99792.97;4415163;32;20158;-92
2022/12/22 09:42:22;;;;;;;73.75;30.98;;;;;;;7.32;59.58;99790.38;4414984;32;20396;-92
2022/12/22 09:44:49;;;;;;;69.15;29.27;;;;;;;7.44;59.59;99788.47;4402293;32;20152;-92
2022/12/22 09:47:17;;;;;;;67.70;30.00;;;;;;;7.55;59.60;99784.78;4414891;32;20116;-93
2022/12/22 09:49:43;;;;;;;81.18;33.30;;;;;;;7.42;59.60;99785.06;4426896;32;20161;-92
2022/12/22 09:52:49;;;;;;;70.30;32.05;;;;;;;7.42;59.60;99787.66;4414943;32;20377;-92
2022/12/22 09:55:22;;;;;;;73.40;30.55;;;;;;;7.35;59.59;99777.41;4376921;32;20092;-93
2022/12/22 09:57:47;;;;;;;77.72;32.60;;;;;;;7.23;59.58;99772.44;4414797;32;20653;-92
2022/12/22 10:00:14;;;;;;;70.22;30.92;;;;;;;7.09;59.57;99764.06;4415231;32;20125;-92
2022/12/22 10:03:02;;;;;;;70.87;30.02;;;;;;;6.98;59.57;99761.66;4414723;32;20074;-92
2022/12/22 10:05:51;;;;;;;69.95;30.77;;;;;;;7.01;59.56;99761.59;4402785;32;20097;-92
2022/12/22 10:08:25;;;;;;;67.80;29.35;;;;;;;7.16;59.57;99750.16;4433129;32;20101;-92
2022/12/22 10:10:54;;;;;;;62.97;27.75;;;;;;;7.20;59.58;99761.28;4402644;32;20105;-92
2022/12/22 10:13:19;;;;;;;69.12;29.35;;;;;;;7.06;59.57;99758.94;4414704;32;20140;-92
2022/12/22 10:15:45;;;;;;;67.12;29.00;;;;;;;7.32;59.58;99759.31;4414612;32;20121;-92
2022/12/22 10:18:12;;;;;;;62.50;27.05;;;;;;;7.52;59.59;99747.72;4414637;32;20357;-92
2022/12/22 10:20:38;;;;;;;53.80;25.73;;;;;;;7.49;59.60;99743.47;4402524;32;20114;-91
2022/12/22 10:23:16;;;;;;;70.10;27.50;;;;;;;7.59;59.60;99744.16;4427310;32;20139;-92
2022/12/22 10:26:04;;;;;;;68.03;28.67;;;;;;;7.40;59.59;99735.88;4414590;32;20101;-91
2022/12/22 10:28:39;;;;;;;64.87;27.60;;;;;;;7.46;59.59;99738.34;4416429;32;20105;-92
2022/12/22 10:31:09;;;;;;;66.45;29.48;;;;;;;7.44;59.59;99736.69;4414370;32;20114;-92
2022/12/22 10:33:34;;;;;;;83.70;37.10;;;;;;;7.53;59.60;99731.31;4414556;32;20182;-93
2022/12/22 10:36:00;;;;;;;65.25;29.30;;;;;;;7.58;59.60;99729.50;4416144;32;20141;-91
2022/12/22 10:38:33;;;;;;;69.10;28.77;;;;;;;7.63;59.61;99730.25;4416634;32;20157;-92
2022/12/22 10:41:21;;;;;;;150.60;63.97;;;;;;;7.61;59.61;99727.69;4403865;32;20125;-92
2022/12/22 10:43:52;;;;;;;285.40;107.97;;;;;;;7.70;59.61;99724.91;4418137;32;20495;-92
2022/12/22 10:46:18;;;;;;;89.62;39.85;;;;;;;7.48;59.60;99726.22;4403914;32;20085;-92
2022/12/22 10:48:44;;;;;;;67.03;30.20;;;;;;;7.51;59.60;99715.78;4403670;32;20097;-93
2022/12/22 10:51:11;;;;;;;66.53;28.42;;;;;;;7.57;59.60;99710.50;4415857;32;20359;-92
2022/12/22 10:53:50;;;;;;;65.50;28.05;;;;;;;7.57;59.60;99700.16;4403304;32;20112;-92
2022/12/22 10:56:34;;;;;;;65.37;26.42;;;;;;;7.62;59.61;99700.91;4403505;32;20128;-92
2022/12/22 10:59:18;;;;;;;58.00;26.95;;;;;;;7.59;59.60;99718.25;4416001;32;20465;-92
2022/12/22 11:01:43;;;;;;;68.82;27.92;;;;;;;7.59;59.60;99731.19;4416159;32;20136;-92
2022/12/22 11:04:25;;;;;;;62.20;29.30;;;;;;;7.62;59.61;99728.53;4416018;32;20156;-93
2022/12/22 11:06:54;;;;;;;62.00;26.83;;;;;;;7.67;59.60;99726.72;4428780;32;20164;-93
2022/12/22 11:09:20;;;;;;;65.25;30.60;;;;;;;7.79;59.61;99715.22;4416014;32;20445;-92
2022/12/22 11:11:47;;;;;;;74.22;28.50;;;;;;;7.79;59.62;99708.31;4416061;32;20179;-93
2022/12/22 11:14:19;;;;;;;64.12;28.23;;;;;;;7.75;59.61;99708.41;4415991;32;20100;-92
2022/12/22 11:16:49;;;;;;;65.97;28.60;;;;;;;7.87;59.62;99715.94;4404013;32;20127;-92
2022/12/22 11:19:33;;;;;;;;;;;;;;;8.01;59.63;99716.47;4404068;32;20089;-93
2022/12/22 11:22:20;;;;;;;58.78;26.48;;;;;;;8.13;59.63;99715.34;4428966;32;20004;-93
2022/12/22 11:24:57;;;;;;;63.13;27.40;;;;;;;8.13;59.63;99710.16;4428784;32;20113;-92
2022/12/22 11:27:56;;;;;;;59.50;27.92;;;;;;;8.26;59.64;99703.78;4428576;32;20061;-93
2022/12/22 11:31:01;;;;;;;59.78;28.60;;;;;;;8.45;59.65;99692.12;4417656;32;20070;-91
2022/12/22 11:34:02;;;;;;;60.65;27.60;;;;;;;8.39;59.65;99692.28;4415038;32;20113;-93
2022/12/22 11:36:37;;;;;;;61.28;28.50;;;;;;;8.47;59.65;99682.56;4417807;32;20101;-93
2022/12/22 11:39:10;;;;;;;58.33;27.37;;;;;;;8.49;59.65;99687.72;4416231;32;20088;-92
2022/12/22 11:42:10;;;;;;;65.45;28.85;;;;;;;8.45;59.65;99691.28;4416269;32;20088;-93
2022/12/22 11:44:50;;;;;;;63.47;27.60;;;;;;;8.42;59.64;99696.53;4401286;32;20172;-93
2022/12/22 11:47:24;;;;;;;69.32;29.63;;;;;;;8.46;59.65;99696.44;4423362;32;20098;-93
2022/12/22 11:49:58;;;;;;;61.47;27.33;;;;;;;8.45;59.65;99706.84;4400202;32;20098;-92
2022/12/22 11:52:46;;;;;;;64.15;26.00;;;;;;;8.59;59.66;99697.84;4413190;32;20117;-93
2022/12/22 11:55:33;;;;;;;67.35;28.77;;;;;;;8.54;59.65;99688.47;4421429;32;20131;-91
2022/12/22 11:58:17;;;;;;;59.25;26.83;;;;;;;8.63;59.66;99695.16;4395738;32;20093;-92
2022/12/22 12:00:47;;;;;;;58.22;26.62;;;;;;;8.49;59.65;99704.13;4408343;32;20086;-92
2022/12/22 12:03:32;;;;;;;63.30;29.33;;;;;;;8.60;59.66;99698.69;4404432;32;20114;-92
2022/12/22 12:06:35;;;;;;;62.40;26.60;;;;;;;8.64;59.66;99695.13;4428026;32;20135;-92
2022/12/22 12:09:21;;;;;;;59.25;26.45;;;;;;;8.55;59.65;99700.56;4416039;32;20459;-92
2022/12/22 12:11:52;;;;;;;71.22;28.58;;;;;;;8.84;59.67;99685.09;4405407;32;20153;-92
2022/12/22 12:14:38;;;;;;;64.45;26.92;;;;;;;8.46;59.65;99691.25;4412728;32;20084;-92
2022/12/22 12:17:15;;;;;;;67.43;28.52;;;;;;;8.47;59.65;99685.16;4400132;32;20133;-92
2022/12/22 12:19:51;;;;;;;61.35;27.73;;;;;;;8.75;59.67;99679.28;4422821;32;20131;-92
2022/12/22 12:22:28;;;;;;;65.28;29.83;;;;;;;8.53;59.66;99679.84;4400250;32;20121;-92
2022/12/22 12:25:00;;;;;;;67.12;29.00;;;;;;;8.44;59.65;99674.88;4412457;32;20116;-92
2022/12/22 12:27:29;;;;;;;67.00;29.08;;;;;;;8.62;59.66;99668.38;4400261;32;20096;-91
2022/12/22 12:29:57;;;;;;;64.35;28.30;;;;;;;8.66;59.67;99664.81;4413097;32;20105;-92
2022/12/22 12:32:27;;;;;;;85.00;32.25;;;;;;;8.58;59.65;99667.59;4412863;32;20093;-92
2022/12/22 12:34:59;;;;;;;66.28;31.02;;;;;;;8.48;59.65;99680.81;4400509;32;20112;-92
2022/12/22 12:37:35;;;;;;;67.03;29.25;;;;;;;8.61;59.66;99692.62;4400830;32;20781;-91
2022/12/22 12:40:28;;;;;;;61.97;29.15;;;;;;;8.67;59.66;99689.88;4400626;32;20135;-91
2022/12/22 12:42:54;;;;;;;67.10;29.23;;;;;;;8.75;59.67;99705.22;4412714;32;20098;-92
2022/12/22 12:45:32;;;;;;;68.30;30.05;;;;;;;8.56;59.65;99702.25;4400302;32;20141;-92
2022/12/22 12:48:20;;;;;;;64.43;28.85;;;;;;;8.73;59.66;99701.81;4400592;32;20069;-92
2022/12/22 12:50:51;;;;;;;60.83;27.70;;;;;;;8.63;59.66;99709.00;4412776;32;20534;-92
2022/12/22 12:53:18;;;;;;;70.85;31.23;;;;;;;8.23;59.64;99715.09;4400725;32;20069;-92
2022/12/22 12:55:50;;;;;;;64.05;28.25;;;;;;;8.49;59.65;99708.47;4400753;32;20101;-92
2022/12/22 12:58:51;;;;;;;68.47;29.70;;;;;;;8.69;59.66;99701.06;4399189;32;20128;-93
2022/12/22 13:01:17;;;;;;;60.00;27.45;;;;;;;8.53;59.66;99698.00;4351907;32;20119;-92
2022/12/22 13:03:42;;;;;;;65.37;28.50;;;;;;;8.46;59.65;99709.41;4412586;32;20143;-93
2022/12/22 13:06:09;;;;;;;65.18;27.35;;;;;;;8.27;59.64;99692.53;4400413;32;20115;-93
2022/12/22 13:08:46;;;;;;;66.32;28.62;;;;;;;8.32;59.64;99690.72;4400150;32;20809;-92
2022/12/22 13:11:15;;;;;;;64.35;28.48;;;;;;;8.10;59.63;99692.09;4412694;32;20127;-92
2022/12/22 13:13:40;;;;;;;61.65;28.70;;;;;;;8.40;59.65;99690.56;4426886;32;20111;-92
2022/12/22 13:16:05;;;;;;;59.67;28.17;;;;;;;8.29;59.63;99691.62;4412622;32;20109;-92
2022/12/22 13:18:34;;;;;;;58.78;26.30;;;;;;;8.30;59.63;99687.31;4412686;32;20121;-92
2022/12/22 13:21:06;;;;;;;63.13;27.27;;;;;;;8.53;59.66;99684.19;4412919;32;20097;-92
2022/12/22 13:23:36;;;;;;;66.85;28.17;;;;;;;8.29;59.63;99691.62;4399819;32;20161;-90
2022/12/22 13:26:06;;;;;;;65.25;27.65;;;;;;;8.41;59.65;99692.25;4399689;32;20109;-92
2022/12/22 13:28:31;;;;;;;60.30;26.05;;;;;;;8.22;59.64;99697.84;4400104;32;20141;-90
2022/12/22 13:30:59;;;;;;;57.30;27.17;;;;;;;8.03;59.62;99688.75;4399790;32;20089;-92
2022/12/22 13:33:28;;;;;;;60.10;27.73;;;;;;;7.99;59.63;99681.94;4399972;32;20093;-93
2022/12/22 13:35:53;;;;;;;64.30;27.30;;;;;;;7.86;59.62;99678.78;4387583;32;20109;-93
2022/12/22 13:38:32;;;;;;;66.95;31.37;;;;;;;7.67;59.60;99678.34;4399701;32;20146;-92
2022/12/22 13:40:58;;;;;;;68.18;30.52;;;;;;;8.00;59.63;99661.19;4399789;32;20127;-93
2022/12/22 13:43:24;;;;;;;60.25;27.40;;;;;;;7.93;59.62;99654.44;4399678;32;20112;-93
2022/12/22 13:45:50;;;;;;;63.15;28.52;;;;;;;7.99;59.63;99650.84;4399674;32;20375;-93
2022/12/22 13:48:36;;;;;;;71.70;29.75;;;;;;;8.20;59.63;99642.56;4399699;32;20117;-92
2022/12/22 13:51:02;;;;;;;64.10;29.05;;;;;;;8.11;59.63;99655.75;4424481;32;20092;-93
2022/12/22 13:53:39;;;;;;;69.30;30.40;;;;;;;8.15;59.64;99651.34;4399545;32;20124;-92
2022/12/22 13:56:13;;;;;;;64.28;28.87;;;;;;;8.05;59.62;99655.91;4399640;32;20094;-93
2022/12/22 13:58:39;;;;;;;70.03;28.52;;;;;;;8.12;59.63;99654.88;4399405;32;20127;-93
2022/12/22 14:01:11;;;;;;;67.62;31.83;;;;;;;8.12;59.63;99647.09;4387236;32;20135;-92
2022/12/22 14:03:37;;;;;;;71.03;29.95;;;;;;;8.16;59.63;99640.09;4412031;32;20109;-93
2022/12/22 14:06:36;;;;;;;78.22;31.35;;;;;;;7.98;59.62;99638.78;4399403;32;20710;-94
2022/12/22 14:09:20;;;;;;;72.12;30.77;;;;;;;7.98;59.62;99633.59;4401176;32;20432;-94
2022/12/22 14:12:02;;;;;;;74.55;33.80;;;;;;;8.05;59.62;99630.00;4414532;32;20105;-94
2022/12/22 14:14:34;;;;;;;75.03;32.97;;;;;;;7.94;59.62;99626.78;4401004;32;20150;-94
2022/12/22 14:16:59;;;;;;;76.05;34.60;;;;;;;7.88;59.62;99627.78;4386800;32;20097;-93
2022/12/22 14:19:26;;;;;;;80.55;36.28;;;;;;;7.95;59.63;99631.94;4399275;32;20124;-95
2022/12/22 14:22:16;;;;;;;76.10;34.72;;;;;;;7.69;59.62;99640.28;4399438;32;20097;-93
2022/12/22 14:24:54;;;;;;;;;;;;;;;7.69;59.62;99645.47;4403636;32;20501;-93
2022/12/22 14:27:37;;;;;;;72.30;32.88;;;;;;;7.63;59.61;99648.22;4411422;32;19973;-93
2022/12/22 14:30:05;;;;;;;82.55;34.90;;;;;;;7.39;59.58;99647.00;4386944;32;20102;-91
2022/12/22 14:32:43;;;;;;;75.82;33.17;;;;;;;7.42;59.59;99658.16;4398921;32;20081;-93
2022/12/22 14:35:20;;;;;;;74.28;34.22;;;;;;;7.31;59.60;99659.22;4398946;32;20097;-92
2022/12/22 14:37:50;;;;;;;83.05;36.42;;;;;;;7.37;59.59;99674.66;4411261;32;20082;-92
2022/12/22 14:40:31;;;;;;;;;;;;;;;7.26;59.58;99680.91;4399118;32;20125;-92
2022/12/22 14:42:56;;;;;;;74.65;33.25;;;;;;;7.24;59.57;99691.31;4411211;32;20005;-91
2022/12/22 14:45:22;;;;;;;78.80;32.75;;;;;;;7.34;59.59;99681.63;4385887;32;20116;-93
2022/12/22 14:47:48;;;;;;;83.50;34.47;;;;;;;7.11;59.58;99704.53;4398545;32;20085;-93
2022/12/22 14:50:17;;;;;;;76.68;35.03;;;;;;;7.01;59.56;99686.56;4398508;32;20159;-92
2022/12/22 14:52:50;;;;;;;83.45;37.30;;;;;;;7.00;59.56;99697.78;4398651;32;20062;-93
2022/12/22 14:55:25;;;;;;;134.12;54.05;;;;;;;7.13;59.58;99682.91;4398344;32;20082;-91
2022/12/22 14:57:53;;;;;;;134.37;54.70;;;;;;;7.06;59.57;99700.25;4398721;32;20097;-93
2022/12/22 15:00:21;;;;;;;116.57;50.05;;;;;;;6.85;59.56;99704.97;4398463;32;20142;-93
2022/12/22 15:02:52;;;;;;;104.75;44.83;;;;;;;6.97;59.57;99710.78;4410927;32;20158;-92
2022/12/22 15:05:25;;;;;;;121.30;51.47;;;;;;;7.06;59.57;99709.75;4398112;32;20455;-93
2022/12/22 15:07:53;;;;;;;115.88;48.17;;;;;;;7.28;59.58;99700.72;4398336;32;20132;-93
2022/12/22 15:10:19;;;;;;;96.82;43.87;;;;;;;7.21;59.58;99683.59;4398454;32;20109;-93
2022/12/22 15:12:45;;;;;;;124.93;48.55;;;;;;;7.26;59.58;99688.69;4398526;32;20166;-94
2022/12/22 15:15:15;;;;;;;162.07;58.85;;;;;;;7.19;59.58;99689.69;4398410;32;20101;-93
2022/12/22 15:17:41;;;;;;;176.77;65.05;;;;;;;7.14;59.57;99684.59;4397700;32;20102;-93
2022/12/22 15:20:09;;;;;;;136.52;53.97;;;;;;;7.17;59.57;99678.50;4398363;32;20162;-93